EDT,Max TemperatureF,Mean TemperatureF,Min TemperatureF,Max Dew PointF,MeanDew PointF,Min DewpointF,Max Humidity, Mean Humidity, Min Humidity, Max Sea Level PressureIn, Mean Sea Level PressureIn, Min Sea Level PressureIn, Max VisibilityMiles, Mean VisibilityMiles, Min VisibilityMiles, Max Wind SpeedMPH, Mean Wind SpeedMPH, Max Gust SpeedMPH,PrecipitationIn, CloudCover, Events, WindDirDegrees
2011-9-1,89,82,75,76,74,70,94,81,63,30.06,30.02,29.98,10,10,10,17,7,23,T,2,Rain,87
2011-9-2,92,83,74,75,73,70,94,77,52,30.00,29.96,29.90,10,10,10,17,8,22,0.00,2,,94
2011-9-3,90,82,74,76,72,69,88,76,59,29.95,29.90,29.86,10,10,10,15,8,18,0.07,2,,100
2011-9-4,88,82,76,78,76,72,94,82,68,29.91,29.87,29.83,10,10,10,20,8,24,0.00,0,,142
2011-9-5,92,85,78,77,77,75,97,74,60,29.87,29.83,29.78,10,10,9,25,14,33,0.00,2,,171
2011-9-6,88,83,77,79,76,73,91,83,74,29.92,29.86,29.78,10,8,1,30,11,39,0.53,4,Rain,213
2011-9-7,86,80,73,77,74,72,93,88,70,29.94,29.91,29.89,10,8,0,24,6,33,2.68,5,Fog-Rain,101
2011-9-8,86,81,75,74,73,69,94,82,65,29.95,29.92,29.89,10,10,10,10,5,25,T,3,,15
2011-9-9,89,81,72,76,71,65,94,80,68,29.97,29.93,29.90,10,10,3,26,6,35,0.12,2,Rain,63
2011-9-10,89,82,74,75,73,71,94,80,63,30.02,29.97,29.92,10,10,10,16,4,21,0.00,0,,162
2011-9-11,90,83,75,76,74,72,94,75,59,30.07,30.03,29.99,10,10,10,14,4,17,0.00,1,,284
2011-9-12,92,84,75,74,70,64,94,66,44,30.09,30.03,29.96,10,10,10,13,5,28,0.00,0,,2
2011-9-13,93,83,73,72,69,65,87,65,47,30.02,29.96,29.91,10,10,10,14,5,26,0.01,2,,20
2011-9-14,92,82,72,72,68,62,90,66,41,29.97,29.93,29.89,10,10,9,14,5,56,0.00,1,,39
2011-9-15,89,80,71,73,71,68,87,73,55,30.00,29.96,29.92,10,10,10,15,5,22,0.00,0,,303
2011-9-16,91,82,72,74,70,66,93,72,47,30.07,30.03,29.99,10,8,2,14,5,17,0.00,0,,342
2011-9-17,93,84,74,73,68,63,87,64,38,30.10,30.04,29.99,10,10,9,15,6,22,0.00,2,,66
2011-9-18,92,84,75,74,72,69,94,78,49,30.09,30.04,29.99,10,9,4,22,7,24,0.29,4,Rain,51
2011-9-19,89,82,75,73,72,69,94,76,55,30.02,29.98,29.91,10,10,6,13,8,17,0.00,5,,61
2011-9-20,91,83,75,75,73,72,94,76,56,29.99,29.95,29.91,10,10,10,17,6,21,0.01,1,Rain,105
2011-9-21,90,83,76,77,75,73,94,81,68,30.04,29.98,29.94,10,10,10,13,7,,0.04,2,,83
2011-9-22,91,84,76,76,74,72,94,84,59,30.02,29.99,29.94,10,10,2,16,7,21,0.29,3,Rain,105
2011-9-23,90,83,75,77,75,73,94,78,63,29.99,29.93,29.88,10,10,10,12,4,16,T,1,Rain,22
2011-9-24,89,83,76,77,75,73,94,80,63,29.95,29.91,29.87,10,9,2,12,4,14,0.15,2,Rain,326
2011-9-25,90,83,75,77,74,72,94,85,68,29.95,29.92,29.87,10,8,1,18,6,22,1.47,4,Rain,94
2011-9-26,84,80,76,77,74,71,94,86,69,29.95,29.92,29.89,10,9,2,15,7,17,0.18,3,Rain,126
2011-9-27,89,82,75,76,74,73,94,84,63,29.96,29.92,29.89,10,10,2,17,6,22,0.06,5,Rain,82
2011-9-28,91,83,74,75,73,70,94,76,55,29.93,29.89,29.84,10,9,2,15,6,22,0.00,1,,1
2011-9-29,91,83,75,75,73,68,94,76,53,29.90,29.85,29.80,10,10,10,15,6,18,0.00,1,,19
2011-9-30,89,81,73,72,70,66,93,71,55,29.86,29.82,29.77,10,10,10,16,6,26,0.00,1,,338